Euskara    
Meteorología y climatología de Navarra
Datos de la estación - Meteo Navarra

Estación de Yesa GN

Altitud 487 m.


Datos desde el 18/10/2020 hasta el 19/10/2020 en horario solar
Los datos son PROVISIONALES

Anterior Página 1 de 1 Siguiente Descargar: Formato para Excel 2000 o superior   Formato csv   Formato para OpenOffice Calc
Fecha Temperatura Humedad relativa Radiación global Insolación Precipitación Vel. viento 10 m Vel. viento 10 m Dir. viento 10 m
°C % W/m² s l/m² m/s km/h °
18/10/2020 0:00 6.9 86 0.0 0 0.0 1.7 6.1 112
18/10/2020 0:10 6.6 87 0.0 0 0.0 1.8 6.3 105
18/10/2020 0:20 6.5 86 0.0 0 0.0 2.1 7.4 109
18/10/2020 0:30 6.3 86 0.0 0 0.0 1.5 5.4 100
18/10/2020 0:40 6.3 87 0.0 0 0.0 1.6 5.7 100
18/10/2020 0:50 6.1 88 0.0 0 0.0 1.8 6.5 100
18/10/2020 1:00 6.2 87 0.0 0 0.0 3.1 11.0 98
18/10/2020 1:10 6.4 86 0.0 0 0.0 3.2 11.6 98
18/10/2020 1:20 6.4 86 0.0 0 0.0 3.1 11.3 103
18/10/2020 1:30 6.3 85 0.0 0 0.0 3.1 11.1 104
18/10/2020 1:40 6.1 84 0.0 0 0.0 3.6 12.8 107
18/10/2020 1:50 6.1 85 0.0 0 0.0 3.6 13.0 107
18/10/2020 2:00 6.0 86 0.0 0 0.0 3.2 11.6 110
18/10/2020 2:10 5.8 86 0.0 0 0.0 3.6 12.9 105
18/10/2020 2:20 5.8 86 0.0 0 0.0 3.2 11.6 98
18/10/2020 2:30 5.6 85 0.0 0 0.0 3.1 11.0 101
18/10/2020 2:40 5.7 84 0.0 0 0.0 2.9 10.4 100
18/10/2020 2:50 5.5 85 0.0 0 0.0 2.9 10.5 107
18/10/2020 3:00 5.5 85 0.0 0 0.0 3.0 10.7 102
18/10/2020 3:10 5.4 86 0.0 0 0.0 3.7 13.4 102
18/10/2020 3:20 5.3 87 0.0 0 0.0 3.7 13.2 104
18/10/2020 3:30 5.1 87 0.0 0 0.0 3.7 13.2 105
18/10/2020 3:40 4.9 88 0.0 0 0.0 4.3 15.5 102
18/10/2020 3:50 4.9 89 0.0 0 0.0 4.5 16.3 102
18/10/2020 4:00 4.8 90 0.0 0 0.0 4.2 15.2 100
18/10/2020 4:10 4.6 89 0.0 0 0.0 3.2 11.6 97
18/10/2020 4:20 4.4 89 0.0 0 0.0 3.7 13.2 112
18/10/2020 4:30 4.5 88 0.0 0 0.0 4.0 14.4 108
18/10/2020 4:40 4.4 88 0.0 0 0.0 5.0 17.8 103
18/10/2020 4:50 4.3 89 0.0 0 0.0 5.1 18.2 99
18/10/2020 5:00 4.2 89 0.0 0 0.0 4.6 16.4 97
18/10/2020 5:10 4.0 90 0.0 0 0.0 4.7 17.0 98
18/10/2020 5:20 4.0 90 0.0 0 0.0 4.5 16.0 100
18/10/2020 5:30 4.0 90 0.0 0 0.0 4.7 16.9 104
18/10/2020 5:40 4.0 89 0.0 0 0.0 3.8 13.5 109
18/10/2020 5:50 3.9 90 0.0 0 0.0 3.2 11.5 107
18/10/2020 6:00 3.9 91 0.0 0 0.0 3.6 13.0 106
18/10/2020 6:10 3.9 91 0.0 0 0.0 3.4 12.2 105
18/10/2020 6:20 3.8 90 0.0 0 0.0 3.3 11.9 103
18/10/2020 6:30 3.7 89 0.0 0 0.0 3.9 14.0 104
18/10/2020 6:40 3.8 89 11.4 0 0.0 4.0 14.5 106
18/10/2020 6:50 3.9 92 27.9 166 0.0 3.7 13.2 107
18/10/2020 7:00 4.0 92 44.2 340 0.0 4.4 15.9 107
18/10/2020 7:10 3.9 92 61.9 406 0.0 4.7 16.9 106
18/10/2020 7:20 3.9 91 83.6 600 0.0 5.1 18.2 108
18/10/2020 7:30 4.0 90 121.2 600 0.0 4.6 16.6 109
18/10/2020 7:40 4.2 87 151.8 600 0.0 5.1 18.4 111
18/10/2020 7:50 4.3 86 161.3 600 0.0 4.0 14.5 115
18/10/2020 8:00 4.5 86 165.3 510 0.0 4.0 14.5 110
18/10/2020 8:10 4.5 87 112.0 0 0.0 4.1 14.9 109
18/10/2020 8:20 4.5 87 167.0 238 0.0 4.4 15.7 109
18/10/2020 8:30 5.1 85 309.5 600 0.0 4.2 15.1 116
18/10/2020 8:40 5.7 80 361.0 600 0.0 4.2 15.0 116
18/10/2020 8:50 6.1 79 355.0 600 0.0 4.2 15.3 108
18/10/2020 9:00 6.5 75 376.5 600 0.0 4.3 15.5 109
18/10/2020 9:10 6.5 73 180.0 102 0.0 4.3 15.6 111
18/10/2020 9:20 6.3 74 155.6 0 0.0 4.7 16.7 100
18/10/2020 9:30 6.4 72 188.0 0 0.0 4.7 16.8 103
18/10/2020 9:40 6.8 71 331.2 464 0.0 4.2 15.1 106
18/10/2020 9:50 7.6 68 455.1 600 0.0 3.2 11.6 109
18/10/2020 10:00 8.6 68 615.9 600 0.0 2.8 9.9 123
18/10/2020 10:10 9.4 65 644.6 600 0.0 2.8 10.0 116
18/10/2020 10:20 10.1 63 603.0 600 0.0 2.7 9.6 123
18/10/2020 10:30 10.4 62 592.2 600 0.0 2.5 9.0 124
18/10/2020 10:40 10.5 62 611.9 600 0.0 2.4 8.5 132
18/10/2020 10:50 10.6 62 648.0 600 0.0 2.3 8.2 132
18/10/2020 11:00 11.3 60 641.9 600 0.0 1.9 6.9 130
18/10/2020 11:10 11.8 59 644.7 600 0.0 2.3 8.3 128
18/10/2020 11:20 12.3 57 656.8 600 0.0 2.4 8.6 122
18/10/2020 11:30 12.7 53 587.3 600 0.0 2.9 10.6 122
18/10/2020 11:40 13.3 51 652.9 600 0.0 2.4 8.7 129
18/10/2020 11:50 13.6 51 651.4 600 0.0 2.0 7.3 138
18/10/2020 12:00 14.0 49 651.0 600 0.0 2.3 8.1 132
18/10/2020 12:10 14.8 47 648.5 600 0.0 1.5 5.5 153
18/10/2020 12:20 14.8 45 641.9 600 0.0 2.4 8.7 131
18/10/2020 12:30 15.3 42 636.6 600 0.0 2.2 7.7 126
18/10/2020 12:40 16.1 42 629.6 600 0.0 1.5 5.3 161
18/10/2020 12:50 16.2 42 583.8 600 0.0 1.3 4.6 151
18/10/2020 13:00 16.7 43 558.7 600 0.0 1.1 4.0 146
18/10/2020 13:10 17.2 40 566.5 600 0.0 1.1 4.0 162
18/10/2020 13:20 17.8 38 599.9 600 0.0 1.2 4.1 169
18/10/2020 13:30 18.4 38 593.2 600 0.0 1.1 3.8 135
18/10/2020 13:40 18.6 37 522.5 600 0.0 1.5 5.4 173
18/10/2020 13:50 18.8 37 530.7 600 0.0 1.1 4.0 206
18/10/2020 14:00 18.6 36 493.7 600 0.0 0.8 2.9 261
18/10/2020 14:10 18.4 37 372.7 600 0.0 0.9 3.4 272
18/10/2020 14:20 18.4 37 371.8 600 0.0 0.8 2.7 261
18/10/2020 14:30 18.5 35 426.5 600 0.0 1.8 6.3 281
18/10/2020 14:40 18.4 35 301.3 544 0.0 1.0 3.5 283
18/10/2020 14:50 18.4 36 240.0 462 0.0 0.5 1.9 231
18/10/2020 15:00 18.3 38 185.5 86 0.0 0.5 1.9 221
18/10/2020 15:10 18.2 40 147.6 20 0.0 0.3 0.9 229
18/10/2020 15:20 18.1 43 131.3 0 0.0 0.6 2.0 290
18/10/2020 15:30 17.8 45 133.7 76 0.0 0.7 2.4 294
18/10/2020 15:40 17.6 46 114.7 0 0.0 0.3 1.2 252
18/10/2020 15:50 17.5 52 98.9 0 0.0 0.1 0.2 320
18/10/2020 16:00 17.1 55 91.4 0 0.0 0.0 0.0 0
18/10/2020 16:10 17.4 53 79.8 0 0.0 0.0 0.0 0
18/10/2020 16:20 17.6 52 67.9 0 0.0 0.1 0.4 154
18/10/2020 16:30 16.4 56 58.5 0 0.0 0.0 0.1 153
18/10/2020 16:40 16.2 55 55.1 292 0.0 0.8 2.8 126
18/10/2020 16:50 16.2 55 39.9 420 0.0 1.3 4.7 133
18/10/2020 17:00 16.0 56 22.3 44 0.0 1.4 5.2 132
18/10/2020 17:10 15.6 57 0.1 0 0.0 1.4 5.0 98
18/10/2020 17:20 15.2 60 0.0 0 0.0 1.3 4.7 117
18/10/2020 17:30 14.3 64 0.0 0 0.0 2.0 7.3 118
18/10/2020 17:40 13.9 67 0.0 0 0.0 2.9 10.3 111
18/10/2020 17:50 13.9 65 0.0 0 0.0 2.9 10.3 105
18/10/2020 18:00 13.8 66 0.0 0 0.0 2.8 10.1 95
18/10/2020 18:10 13.7 64 0.0 0 0.0 2.9 10.5 98
18/10/2020 18:20 13.5 64 0.0 0 0.0 2.8 10.2 94
18/10/2020 18:30 13.2 62 0.0 0 0.0 1.9 6.7 111
18/10/2020 18:40 12.6 66 0.0 0 0.0 0.6 2.2 148
18/10/2020 18:50 11.8 70 0.0 0 0.0 1.8 6.5 109
18/10/2020 19:00 11.7 73 0.0 0 0.0 2.2 7.8 114
18/10/2020 19:10 11.3 76 0.0 0 0.0 2.3 8.3 118
18/10/2020 19:20 11.1 74 0.0 0 0.0 2.4 8.7 93
18/10/2020 19:30 11.0 75 0.0 0 0.0 3.3 12.0 102
18/10/2020 19:40 11.2 75 0.0 0 0.0 3.4 12.2 108
18/10/2020 19:50 11.2 71 0.0 0 0.0 4.1 14.9 106
18/10/2020 20:00 11.2 72 0.0 0 0.0 3.0 10.8 112
18/10/2020 20:10 10.7 74 0.0 0 0.0 2.8 10.2 111
18/10/2020 20:20 10.5 75 0.0 0 0.0 3.6 12.9 109
18/10/2020 20:30 10.3 76 0.0 0 0.0 3.1 11.3 104
18/10/2020 20:40 10.0 76 0.0 0 0.0 3.1 11.3 109
18/10/2020 20:50 10.0 77 0.0 0 0.0 4.1 14.7 109
18/10/2020 21:00 9.9 76 0.0 0 0.0 4.6 16.7 107
18/10/2020 21:10 9.7 75 0.0 0 0.0 4.5 16.3 107
18/10/2020 21:20 9.8 74 0.0 0 0.0 4.2 15.0 109
18/10/2020 21:30 9.8 73 0.0 0 0.0 4.2 15.2 106
18/10/2020 21:40 9.9 70 0.0 0 0.0 5.2 18.6 102
18/10/2020 21:50 10.0 70 0.0 0 0.0 5.4 19.3 102
18/10/2020 22:00 9.7 71 0.0 0 0.0 5.5 19.8 101
18/10/2020 22:10 9.5 71 0.0 0 0.0 5.4 19.4 102
18/10/2020 22:20 9.2 72 0.0 0 0.0 4.9 17.5 101
18/10/2020 22:30 8.9 72 0.0 0 0.0 5.1 18.5 100
18/10/2020 22:40 8.9 73 0.0 0 0.0 4.8 17.3 107
18/10/2020 22:50 8.6 74 0.0 0 0.0 4.8 17.1 108
18/10/2020 23:00 8.4 75 0.0 0 0.0 4.5 16.1 106
18/10/2020 23:10 8.6 72 0.0 0 0.0 4.8 17.2 105
18/10/2020 23:20 8.8 71 0.0 0 0.0 4.8 17.4 104
18/10/2020 23:30 8.7 71 0.0 0 0.0 4.6 16.7 108
18/10/2020 23:40 8.6 71 0.0 0 0.0 5.0 17.9 105
18/10/2020 23:50 8.5 73 0.0 0 0.0 5.3 18.9 108
Anterior Página 1 de 1 Siguiente

NOTA: Tipo de datos según el color:
   - Valores diarios o 10 minutos correctos
   - Valores diarios calculados a partir de un número de datos 10 minutos menor que 144 y mayor que 120, o de un número de datos semihorarios menor que 48 y mayor que 40 (caso de las estaciones de INTIA Y Ministerio)
   - Valores diez minutos estimados


Contacto        Enlaces        Aviso legal